Beef Island, British Virgin Islands

7:56 AM AST on August 20, 2017 (GMT -0400)
Nanny Cay Marina Village | | Change Station

Elev 23 ft 18.40 °N, 64.63 °W | Updated 14 seconds ago

Partly Cloudy
Partly Cloudy
77.9 °F
Feels Like 80 °F
N
0.0
Wind Variable Wind from NNW
Gusts 0.0 mph

Today
High -- | Low -- °F
--% Chance of Precip.
Yesterday
High -- | Low -- °F
Precip. -- in
Pressure 29.94 in
Visibility 10.0 miles
Clouds Scattered Clouds 1700 ft
Scattered Clouds 2400 ft
Heat Index 80 °F
Dew Point 64 °F
Humidity 61%
Rainfall 0.00 in
Snow Depth Not available.
6:01 AM 6:41 PM
Waning Crescent, 2% visible
METAR TIST 201153Z 11008KT 10SM SCT017 SCT024 28/26 A2994 RMK AO2 RAE08 SLP137 P0000 60015 70043 T02830261 10283 20256 53015 $
Pressure 29.94 in
Visibility 10.0 miles
Clouds Scattered Clouds 1700 ft
Scattered Clouds 2400 ft
Heat Index 80 °F
Dew Point 64 °F
Humidity 61%
Rainfall 0.00 in
Snow Depth Not available.
6:01 AM 6:41 PM
Waning Crescent, 2% visible
METAR TIST 201153Z 11008KT 10SM SCT017 SCT024 28/26 A2994 RMK AO2 RAE08 SLP137 P0000 60015 70043 T02830261 10283 20256 53015 $

Get Severe Weather Alerts

Thanks for signing up!

Be on the lookout for a verification email in your inbox.

You'll start receiving the daily forecast at 6 AM.

×

10-Day Weather Forecast

No radar image for this location.
×

Almanac

Astronomy

Aug. 20, 2017 Rise Set
Actual Time
Civil Twilight
Nautical Twilight
Astronomical Twilight
Moon
Length of Visible Light
Length of Day
Tomorrow will be .
, % of the Moon is Illuminated

Today's Extremes

Country Highs Country Lows

Community

WunderPhotos

Category 6

Welcome to Category 6. This is the collective home for Weather Underground's featured writeups by Dr. Jeff Masters (right), Bob Henson (left), Chris Burt, and other regular contributors.

Nearby

Air Quality

  Air Quality AQ Index Pollutant
Not available.

Snow Depth

Station Depth Elevation

Earthquake Activity

City Distance Mag. Time & Date
Minimum magnitude displayed is 2.5.

Coastal Water Temperatures

Place Temperature

Stations

Nearby Weather Stations

Station Location Temp. Windchill Dew Point Humidity Wind Precip. Elev Updated Type